createdAt,value
2018-09-01T00:00:17.255Z,5.30
2018-09-01T00:01:17.283Z,9.10
2018-09-01T00:02:17.307Z,6.60
2018-09-01T00:03:17.333Z,8.10
2018-09-01T00:04:17.364Z,6.00
2018-09-01T00:05:17.390Z,5.80
2018-09-01T00:06:17.415Z,6.70
2018-09-01T00:07:17.468Z,7.30
2018-09-01T00:08:17.462Z,6.20
2018-09-01T00:09:17.506Z,6.10
2018-09-01T00:10:17.526Z,6.20
2018-09-01T00:11:17.573Z,7.20
2018-09-01T00:12:17.580Z,6.80
2018-09-01T00:13:18.775Z,6.20
2018-09-01T00:14:17.644Z,5.70
2018-09-01T00:15:17.664Z,6.50
2018-09-01T00:16:17.689Z,6.50
2018-09-01T00:17:17.715Z,6.90
2018-09-01T00:18:17.744Z,5.30
2018-09-01T00:19:17.777Z,5.70
2018-09-01T00:20:17.786Z,6.30
2018-09-01T00:21:17.820Z,6.50
2018-09-01T00:22:17.852Z,5.70
2018-09-01T00:23:17.878Z,6.00
2018-09-01T00:24:17.902Z,5.80
2018-09-01T00:25:17.933Z,7.60
2018-09-01T00:26:17.960Z,6.10
2018-09-01T00:27:17.989Z,6.80
2018-09-01T00:28:18.018Z,7.80
2018-09-01T00:29:18.041Z,6.50
2018-09-01T00:30:18.058Z,7.10
2018-09-01T00:31:18.099Z,7.00
2018-09-01T00:32:18.130Z,6.20
2018-09-01T00:33:18.157Z,5.60
2018-09-01T00:34:18.176Z,5.00
2018-09-01T00:35:18.198Z,6.30
2018-09-01T00:36:18.233Z,6.40
2018-09-01T00:37:18.261Z,5.60
2018-09-01T00:38:18.284Z,4.60
2018-09-01T00:39:18.310Z,6.50
2018-09-01T00:40:18.342Z,5.30
2018-09-01T00:41:18.360Z,5.90
2018-09-01T00:42:18.399Z,6.10
2018-09-01T00:43:18.421Z,7.90
2018-09-01T00:44:18.447Z,5.40
2018-09-01T00:45:18.472Z,4.60
2018-09-01T00:46:18.500Z,7.30
2018-09-01T00:47:18.517Z,5.70
2018-09-01T00:48:18.551Z,6.60
2018-09-01T00:49:18.580Z,7.50
2018-09-01T00:50:18.611Z,8.60
2018-09-01T00:51:18.631Z,5.30
2018-09-01T00:52:18.660Z,6.90
2018-09-01T00:53:18.691Z,7.50
2018-09-01T00:54:18.714Z,6.30
2018-09-01T00:55:18.739Z,5.60
2018-09-01T00:56:18.765Z,6.30
2018-09-01T00:57:18.797Z,6.40
2018-09-01T00:58:18.823Z,6.00
2018-09-01T00:59:18.849Z,7.30
2018-09-01T01:00:18.877Z,7.40
2018-09-01T01:01:18.900Z,7.50
2018-09-01T01:02:18.932Z,6.40
2018-09-01T01:03:18.963Z,8.10
2018-09-01T01:04:18.983Z,7.60
2018-09-01T01:05:19.011Z,7.10
2018-09-01T01:06:19.037Z,8.60
2018-09-01T01:07:19.059Z,6.00
2018-09-01T01:08:19.090Z,8.40
2018-09-01T01:09:19.118Z,5.80
2018-09-01T01:10:19.149Z,5.70
2018-09-01T01:11:19.177Z,7.90
2018-09-01T01:12:19.199Z,6.80
2018-09-01T01:13:19.226Z,7.00
2018-09-01T01:14:19.247Z,6.70
2018-09-01T01:15:19.283Z,6.20
2018-09-01T01:16:19.310Z,6.90
2018-09-01T01:17:19.332Z,8.70
2018-09-01T01:18:19.377Z,7.90
2018-09-01T01:19:19.383Z,8.00
2018-09-01T01:20:19.413Z,6.30
2018-09-01T01:21:19.438Z,6.10
2018-09-01T01:22:19.467Z,7.60
2018-09-01T01:23:19.500Z,6.80
2018-09-01T01:24:19.518Z,11.40
2018-09-01T01:25:19.547Z,6.70
2018-09-01T01:26:19.573Z,6.80
2018-09-01T01:27:19.601Z,8.00
2018-09-01T01:28:19.627Z,6.30
2018-09-01T01:29:19.653Z,8.90
2018-09-01T01:30:19.679Z,8.30
2018-09-01T01:31:19.717Z,6.70
2018-09-01T01:32:19.730Z,9.10
2018-09-01T01:33:19.765Z,7.10
2018-09-01T01:34:19.785Z,7.70
2018-09-01T01:35:19.813Z,8.90
2018-09-01T01:36:19.842Z,6.70
2018-09-01T01:37:19.867Z,8.40
2018-09-01T01:38:19.888Z,7.10
2018-09-01T01:39:19.923Z,8.30
2018-09-01T01:40:19.945Z,7.40
2018-09-01T01:41:19.971Z,8.70
2018-09-01T01:42:20.003Z,8.90
2018-09-01T01:43:20.022Z,7.10
2018-09-01T01:44:20.054Z,6.20
2018-09-01T01:45:20.077Z,6.40
2018-09-01T01:46:20.110Z,6.70
2018-09-01T01:47:20.132Z,6.30
2018-09-01T01:48:20.161Z,6.60
2018-09-01T01:49:20.189Z,6.70
2018-09-01T01:50:20.212Z,6.60
2018-09-01T01:51:20.238Z,5.70
2018-09-01T01:52:20.261Z,7.30
2018-09-01T01:53:20.297Z,5.70
2018-09-01T01:54:20.326Z,7.60
2018-09-01T01:55:20.343Z,6.40
2018-09-01T01:56:20.373Z,6.70
2018-09-01T01:57:20.399Z,5.30
2018-09-01T01:58:20.425Z,8.10
2018-09-01T01:59:20.451Z,6.80
2018-09-01T02:00:20.483Z,6.50
2018-09-01T02:01:20.500Z,7.20
2018-09-01T02:02:20.531Z,5.90
2018-09-01T02:03:20.563Z,5.60
2018-09-01T02:04:20.586Z,6.50
2018-09-01T02:05:20.618Z,6.50
2018-09-01T02:06:20.641Z,8.70
2018-09-01T02:07:20.665Z,9.40
2018-09-01T02:08:20.694Z,7.40
2018-09-01T02:09:20.716Z,8.20
2018-09-01T02:10:20.749Z,7.30
2018-09-01T02:11:20.771Z,6.00
2018-09-01T02:12:20.796Z,7.90
2018-09-01T02:13:20.825Z,7.80
2018-09-01T02:14:20.851Z,8.00
2018-09-01T02:15:20.878Z,6.90
2018-09-01T02:16:20.901Z,7.80
2018-09-01T02:17:20.933Z,7.70
2018-09-01T02:18:20.964Z,6.50
2018-09-01T02:19:20.981Z,7.20
2018-09-01T02:20:21.009Z,8.60
2018-09-01T02:21:21.035Z,7.80
2018-09-01T02:22:21.060Z,7.50
2018-09-01T02:23:21.090Z,5.50
2018-09-01T02:24:21.118Z,6.90
2018-09-01T02:25:21.140Z,8.20
2018-09-01T02:26:21.170Z,10.20
2018-09-01T02:27:21.199Z,8.50
2018-09-01T02:28:21.217Z,9.50
2018-09-01T02:29:21.246Z,7.60
2018-09-01T02:30:21.272Z,7.70
2018-09-01T02:31:21.300Z,7.40
2018-09-01T02:32:21.325Z,7.80
2018-09-01T02:33:21.358Z,6.20
2018-09-01T02:34:21.383Z,7.80
2018-09-01T02:35:21.405Z,8.00
2018-09-01T02:36:21.436Z,7.50
2018-09-01T02:37:21.466Z,9.40
2018-09-01T02:38:21.484Z,10.80
2018-09-01T02:39:21.510Z,7.60
2018-09-01T02:40:21.533Z,8.20
2018-09-01T02:41:21.571Z,8.00
2018-09-01T02:42:21.590Z,6.90
2018-09-01T02:43:21.617Z,8.10
2018-09-01T02:44:21.643Z,8.60
2018-09-01T02:45:21.671Z,6.40
2018-09-01T02:46:21.697Z,7.30
2018-09-01T02:47:21.721Z,9.10
2018-09-01T02:48:21.746Z,6.70
2018-09-01T02:49:21.775Z,6.90
2018-09-01T02:50:21.809Z,7.70
2018-09-01T02:51:21.822Z,7.10
2018-09-01T02:52:21.877Z,7.40
2018-09-01T02:53:21.878Z,10.60
2018-09-01T02:54:21.912Z,8.60
2018-09-01T02:55:21.929Z,7.60
2018-09-01T02:56:21.954Z,7.60
2018-09-01T02:57:21.986Z,6.30
2018-09-01T02:58:22.011Z,7.90
2018-09-01T02:59:22.037Z,7.30
2018-09-01T03:00:22.063Z,9.00
2018-09-01T03:01:22.089Z,8.90
2018-09-01T03:02:22.117Z,7.40
2018-09-01T03:03:22.144Z,7.70
2018-09-01T03:04:22.169Z,7.00
2018-09-01T03:05:22.194Z,7.00
2018-09-01T03:06:22.223Z,6.30
2018-09-01T03:07:22.245Z,8.30
2018-09-01T03:08:22.275Z,6.20
2018-09-01T03:09:22.298Z,7.80
2018-09-01T03:10:22.323Z,7.00
2018-09-01T03:11:22.355Z,7.80
2018-09-01T03:12:22.377Z,7.80
2018-09-01T03:13:22.409Z,8.00
2018-09-01T03:14:22.432Z,8.70
2018-09-01T03:15:22.460Z,8.30
2018-09-01T03:16:22.487Z,7.20
2018-09-01T03:17:22.509Z,8.40
2018-09-01T03:18:22.538Z,6.70
2018-09-01T03:19:22.557Z,7.20
2018-09-01T03:20:22.595Z,6.70
2018-09-01T03:21:22.615Z,7.10
2018-09-01T03:22:22.640Z,7.80
2018-09-01T03:23:22.672Z,7.50
2018-09-01T03:24:22.697Z,8.20
2018-09-01T03:25:22.720Z,8.90
2018-09-01T03:26:22.745Z,6.70
2018-09-01T03:27:22.770Z,9.30
2018-09-01T03:28:22.796Z,7.00
2018-09-01T03:29:22.822Z,5.10
2018-09-01T03:30:22.851Z,6.10
2018-09-01T03:31:22.881Z,4.80
2018-09-01T03:32:22.902Z,6.60
2018-09-01T03:33:22.926Z,6.80
2018-09-01T03:34:22.954Z,7.20
2018-09-01T03:35:22.980Z,7.40
2018-09-01T03:36:23.008Z,8.40
2018-09-01T03:37:23.035Z,8.30
2018-09-01T03:38:23.056Z,5.60
2018-09-01T03:39:23.085Z,6.80
2018-09-01T03:40:23.111Z,5.80
2018-09-01T03:41:23.136Z,5.70
2018-09-01T03:42:23.161Z,8.30
2018-09-01T03:43:23.193Z,6.30
2018-09-01T03:44:23.216Z,6.30
2018-09-01T03:45:23.242Z,6.90
2018-09-01T03:46:23.277Z,6.40
2018-09-01T03:47:23.291Z,5.30
2018-09-01T03:48:23.321Z,6.30
2018-09-01T03:49:23.344Z,7.00
2018-09-01T03:50:23.369Z,5.30
2018-09-01T03:51:23.400Z,6.00
2018-09-01T03:52:23.428Z,5.80
2018-09-01T03:53:23.451Z,6.20
2018-09-01T03:54:23.474Z,7.60
2018-09-01T03:55:23.502Z,7.30
2018-09-01T03:56:23.531Z,7.20
2018-09-01T03:57:23.550Z,5.50
2018-09-01T03:58:23.583Z,6.80
2018-09-01T03:59:23.608Z,5.80
2018-09-01T04:00:23.665Z,7.20
2018-09-01T04:01:23.721Z,5.50
2018-09-01T04:02:23.924Z,7.40
2018-09-01T04:03:23.842Z,8.50
2018-09-01T04:04:23.954Z,7.50
2018-09-01T04:05:23.992Z,5.70
2018-09-01T04:06:23.841Z,6.90
2018-09-01T04:07:23.882Z,7.20
2018-09-01T04:08:23.981Z,6.70
2018-09-01T04:09:24.069Z,6.50
2018-09-01T04:10:24.079Z,6.30
2018-09-01T04:11:23.927Z,6.40
2018-09-01T04:12:23.946Z,9.30
2018-09-01T04:13:23.972Z,6.20
2018-09-01T04:14:24.001Z,4.90
2018-09-01T04:15:24.033Z,7.70
2018-09-01T04:16:24.049Z,7.90
2018-09-01T04:17:24.076Z,6.70
2018-09-01T04:18:24.102Z,7.60
2018-09-01T04:19:24.136Z,6.60
2018-09-01T04:20:24.149Z,6.60
2018-09-01T04:21:24.178Z,9.20
2018-09-01T04:22:24.207Z,7.30
2018-09-01T04:23:24.244Z,5.70
2018-09-01T04:24:24.258Z,5.90
2018-09-01T04:25:24.286Z,7.20
2018-09-01T04:26:24.310Z,8.80
2018-09-01T04:27:24.339Z,6.90
2018-09-01T04:28:24.358Z,6.10
2018-09-01T04:29:24.387Z,8.00
2018-09-01T04:30:24.414Z,6.50
2018-09-01T04:31:24.437Z,6.80
2018-09-01T04:32:24.461Z,5.40
2018-09-01T04:33:24.493Z,6.30
2018-09-01T04:34:24.518Z,6.20
2018-09-01T04:35:24.545Z,6.90
2018-09-01T04:36:24.570Z,5.60
2018-09-01T04:37:24.595Z,7.20
2018-09-01T04:38:24.624Z,6.70
2018-09-01T04:39:24.649Z,6.10
2018-09-01T04:40:24.673Z,5.30
2018-09-01T04:41:24.699Z,8.00
2018-09-01T04:42:24.727Z,5.60
2018-09-01T04:43:24.750Z,7.20
2018-09-01T04:44:24.776Z,7.10
2018-09-01T04:45:24.805Z,7.00
2018-09-01T04:46:24.830Z,8.00
2018-09-01T04:47:24.855Z,7.20
2018-09-01T04:48:24.882Z,6.30
2018-09-01T04:49:24.905Z,6.10
2018-09-01T04:50:24.936Z,7.10
2018-09-01T04:51:24.959Z,8.30
2018-09-01T04:52:24.992Z,6.60
2018-09-01T04:53:25.010Z,8.50
2018-09-01T04:54:25.036Z,10.30
2018-09-01T04:55:25.060Z,6.50
2018-09-01T04:56:25.082Z,6.60
2018-09-01T04:57:25.108Z,7.30
2018-09-01T04:58:25.140Z,7.00
2018-09-01T04:59:25.166Z,6.60
2018-09-01T05:00:25.194Z,7.20
2018-09-01T05:01:25.247Z,6.80
2018-09-01T05:02:25.245Z,5.60
2018-09-01T05:03:25.265Z,7.00
2018-09-01T05:04:25.298Z,6.90
2018-09-01T05:05:25.324Z,6.50
2018-09-01T05:06:25.349Z,9.30
2018-09-01T05:07:25.371Z,6.00
2018-09-01T05:08:25.400Z,6.80
2018-09-01T05:09:25.427Z,8.00
2018-09-01T05:10:25.454Z,5.90
2018-09-01T05:11:25.472Z,7.50
2018-09-01T05:12:25.502Z,7.10
2018-09-01T05:13:25.527Z,8.00
2018-09-01T05:14:25.550Z,7.20
2018-09-01T05:15:25.569Z,8.60
2018-09-01T05:16:25.604Z,6.30
2018-09-01T05:17:25.633Z,7.40
2018-09-01T05:18:27.851Z,6.50
2018-09-01T05:20:25.712Z,6.30
2018-09-01T05:21:25.737Z,9.00
2018-09-01T05:22:25.765Z,6.30
2018-09-01T05:23:25.785Z,7.10
2018-09-01T05:24:25.832Z,8.70
2018-09-01T05:25:25.836Z,6.90
2018-09-01T05:26:25.863Z,11.10
2018-09-01T05:27:25.887Z,6.90
2018-09-01T05:28:25.913Z,7.50
2018-09-01T05:29:25.942Z,8.30
2018-09-01T05:30:25.964Z,7.50
2018-09-01T05:31:25.990Z,7.80
2018-09-01T05:32:26.098Z,6.40
2018-09-01T05:33:26.048Z,7.40
2018-09-01T05:34:26.073Z,7.50
2018-09-01T05:35:26.105Z,6.70
2018-09-01T05:36:26.132Z,6.00
2018-09-01T05:37:26.143Z,7.10
2018-09-01T05:38:26.172Z,6.80
2018-09-01T05:39:26.204Z,6.90
2018-09-01T05:40:26.227Z,7.80
2018-09-01T05:41:26.253Z,7.20
2018-09-01T05:42:26.276Z,6.00
2018-09-01T05:43:26.298Z,6.00
2018-09-01T05:44:26.336Z,6.40
2018-09-01T05:45:26.350Z,6.70
2018-09-01T05:46:26.391Z,7.00
2018-09-01T05:47:26.408Z,5.90
2018-09-01T05:48:26.437Z,6.60
2018-09-01T05:49:26.459Z,5.90
2018-09-01T05:50:26.483Z,6.00
2018-09-01T05:51:26.512Z,6.70
2018-09-01T05:52:26.539Z,9.30
2018-09-01T05:53:26.566Z,7.80
2018-09-01T05:54:26.585Z,5.70
2018-09-01T05:55:26.616Z,7.00
2018-09-01T05:56:26.639Z,5.70
2018-09-01T05:57:26.662Z,5.70
2018-09-01T05:58:26.692Z,8.90
2018-09-01T05:59:26.717Z,4.80
2018-09-01T06:00:26.772Z,6.90
2018-09-01T06:01:26.771Z,7.40
2018-09-01T06:02:26.794Z,5.40
2018-09-01T06:03:26.819Z,7.20
2018-09-01T06:04:26.845Z,5.70
2018-09-01T06:05:26.874Z,7.00
2018-09-01T06:06:26.988Z,6.10
2018-09-01T06:07:26.925Z,8.30
2018-09-01T06:08:26.954Z,9.00
2018-09-01T06:09:26.979Z,7.40
2018-09-01T06:10:27.013Z,9.10
2018-09-01T06:11:27.031Z,7.10
2018-09-01T06:12:27.056Z,6.20
2018-09-01T06:13:27.086Z,9.00
2018-09-01T06:14:27.111Z,7.40
2018-09-01T06:15:27.146Z,11.50
2018-09-01T06:16:27.163Z,8.10
2018-09-01T06:17:27.251Z,8.00
2018-09-01T06:18:27.210Z,10.00
2018-09-01T06:19:27.236Z,8.40
2018-09-01T06:20:27.272Z,9.30
2018-09-01T06:21:27.292Z,9.50
2018-09-01T06:22:27.324Z,9.30
2018-09-01T06:23:27.349Z,10.40
2018-09-01T06:24:27.378Z,11.20
2018-09-01T06:25:27.398Z,8.20
2018-09-01T06:26:27.423Z,9.60
2018-09-01T06:27:27.451Z,12.60
2018-09-01T06:28:27.482Z,12.20
2018-09-01T06:29:27.500Z,9.10
2018-09-01T06:30:27.524Z,10.00
2018-09-01T06:31:27.556Z,8.60
2018-09-01T06:32:27.578Z,8.80
2018-09-01T06:33:27.611Z,9.60
2018-09-01T06:34:27.633Z,8.90
2018-09-01T06:35:27.669Z,9.90
2018-09-01T06:36:27.685Z,10.80
2018-09-01T06:37:27.763Z,9.90
2018-09-01T06:38:27.743Z,9.60
2018-09-01T06:39:27.768Z,9.70
2018-09-01T06:40:27.795Z,9.10
2018-09-01T06:41:27.828Z,10.20
2018-09-01T06:42:27.847Z,10.30
2018-09-01T06:43:27.873Z,8.90
2018-09-01T06:44:27.898Z,10.50
2018-09-01T06:45:27.924Z,8.70
2018-09-01T06:46:27.959Z,11.00
2018-09-01T06:47:27.981Z,9.00
2018-09-01T06:48:28.008Z,10.00
2018-09-01T06:49:28.030Z,8.40
2018-09-01T06:50:28.064Z,9.20
2018-09-01T06:52:28.112Z,8.20
2018-09-01T06:53:28.146Z,9.20
2018-09-01T06:54:28.170Z,8.80
2018-09-01T06:55:28.202Z,9.30
2018-09-01T06:56:28.221Z,11.10
2018-09-01T06:57:28.253Z,10.00
2018-09-01T06:58:28.272Z,9.50
2018-09-01T06:59:28.304Z,7.70
2018-09-01T07:00:28.326Z,10.20
2018-09-01T07:01:28.355Z,10.90
2018-09-01T07:02:28.384Z,9.30
2018-09-01T07:03:28.415Z,10.30
2018-09-01T07:04:28.441Z,8.50
2018-09-01T07:05:28.461Z,10.60
2018-09-01T07:06:28.494Z,11.00
2018-09-01T07:07:28.519Z,10.00
2018-09-01T07:08:28.544Z,9.00
2018-09-01T07:09:28.572Z,8.50
2018-09-01T07:10:28.601Z,7.50
2018-09-01T07:11:28.636Z,8.80
2018-09-01T07:12:28.653Z,8.70
2018-09-01T07:13:28.680Z,10.20
2018-09-01T07:14:28.713Z,10.10
2018-09-01T07:15:28.745Z,8.70
2018-09-01T07:16:28.763Z,8.40
2018-09-01T07:17:28.790Z,8.20
2018-09-01T07:18:28.818Z,8.30
2018-09-01T07:19:28.840Z,10.80
2018-09-01T07:20:28.874Z,10.00
2018-09-01T07:21:28.903Z,8.00
2018-09-01T07:22:28.922Z,9.00
2018-09-01T07:23:28.954Z,9.20
2018-09-01T07:24:28.989Z,7.70
2018-09-01T07:25:29.008Z,8.00
2018-09-01T07:26:29.034Z,9.10
2018-09-01T07:27:29.067Z,8.00
2018-09-01T07:28:29.098Z,7.80
2018-09-01T07:29:29.124Z,7.50
2018-09-01T07:30:29.215Z,9.00
2018-09-01T07:31:29.639Z,9.30
2018-09-01T07:32:29.205Z,7.70
2018-09-01T07:33:29.246Z,6.90
2018-09-01T07:34:29.271Z,7.60
2018-09-01T07:35:29.300Z,8.00
2018-09-01T07:36:29.329Z,7.60
2018-09-01T07:37:29.351Z,8.00
2018-09-01T07:38:29.383Z,6.40
2018-09-01T07:39:29.412Z,8.40
2018-09-01T07:40:29.441Z,7.10
2018-09-01T07:41:29.474Z,7.70
2018-09-01T07:42:29.505Z,8.70
2018-09-01T07:43:29.538Z,8.90
2018-09-01T07:44:29.572Z,9.20
2018-09-01T07:45:29.599Z,8.00
2018-09-01T07:46:29.637Z,9.40
2018-09-01T07:47:29.669Z,6.40
2018-09-01T07:48:29.724Z,7.40
2018-09-01T07:49:29.724Z,9.60
2018-09-01T07:50:29.753Z,9.20
2018-09-01T07:51:29.782Z,9.00
2018-09-01T07:52:29.817Z,8.00
2018-09-01T07:53:29.844Z,8.70
2018-09-01T07:54:29.926Z,9.80
2018-09-01T07:55:29.915Z,9.40
2018-09-01T07:56:29.948Z,10.30
2018-09-01T07:57:29.979Z,9.60
2018-09-01T07:58:30.014Z,10.40
2018-09-01T07:59:30.043Z,7.30
2018-09-01T08:00:30.077Z,6.70
2018-09-01T08:01:30.108Z,9.40
2018-09-01T08:02:30.143Z,8.40
2018-09-01T08:03:30.172Z,8.80
2018-09-01T08:04:30.210Z,9.70
2018-09-01T08:05:30.242Z,6.10
2018-09-01T08:06:30.276Z,7.60
2018-09-01T08:07:30.407Z,8.50
2018-09-01T08:08:30.354Z,7.90
2018-09-01T08:09:30.380Z,7.30
2018-09-01T08:10:30.418Z,6.40
2018-09-01T08:11:30.450Z,8.10
2018-09-01T08:12:30.481Z,7.40
2018-09-01T08:13:30.525Z,8.40
2018-09-01T08:14:30.601Z,9.60
2018-09-01T08:15:30.581Z,7.80
2018-09-01T08:16:30.612Z,8.10
2018-09-01T08:17:30.650Z,6.70
2018-09-01T08:18:30.692Z,6.60
2018-09-01T08:19:30.723Z,7.80
2018-09-01T08:20:30.758Z,7.10
2018-09-01T08:21:30.801Z,9.90
2018-09-01T08:22:30.832Z,6.30
2018-09-01T08:23:30.858Z,5.90
2018-09-01T08:24:30.898Z,7.80
2018-09-01T08:25:30.934Z,5.90
2018-09-01T08:26:30.970Z,6.80
2018-09-01T08:27:31.002Z,5.10
2018-09-01T08:28:31.030Z,9.10
2018-09-01T08:29:31.084Z,6.00
2018-09-01T08:30:31.112Z,5.90
2018-09-01T08:31:31.146Z,6.20
2018-09-01T08:32:31.186Z,6.20
2018-09-01T08:33:31.268Z,7.60
2018-09-01T08:34:31.250Z,10.10
2018-09-01T08:35:31.312Z,6.80
2018-09-01T08:36:31.325Z,7.00
2018-09-01T08:37:31.357Z,9.70
2018-09-01T08:38:31.395Z,9.00
2018-09-01T08:39:31.434Z,10.20
2018-09-01T08:40:31.466Z,9.60
2018-09-01T08:41:31.505Z,7.00
2018-09-01T08:42:31.540Z,7.70
2018-09-01T08:43:31.572Z,10.10
2018-09-01T08:44:31.610Z,9.40
2018-09-01T08:45:31.649Z,8.80
2018-09-01T08:46:31.684Z,8.80
2018-09-01T08:47:31.716Z,8.40
2018-09-01T08:48:31.758Z,11.10
2018-09-01T08:49:31.793Z,9.80
2018-09-01T08:50:31.832Z,9.10
2018-09-01T08:51:31.867Z,9.40
2018-09-01T08:52:31.912Z,10.20
2018-09-01T08:53:31.941Z,8.90
2018-09-01T08:54:31.979Z,9.80
2018-09-01T08:55:32.019Z,8.00
2018-09-01T08:56:32.109Z,8.10
2018-09-01T08:57:32.108Z,7.90
2018-09-01T08:58:32.128Z,8.10
2018-09-01T08:59:32.163Z,10.00
2018-09-01T09:00:32.208Z,5.90
2018-09-01T09:01:32.237Z,9.40
2018-09-01T09:02:32.273Z,7.30
2018-09-01T09:03:32.321Z,7.10
2018-09-01T09:04:32.351Z,5.80
2018-09-01T09:05:32.435Z,6.90
2018-09-01T09:06:32.425Z,7.40
2018-09-01T09:07:32.469Z,6.80
2018-09-01T09:08:32.507Z,4.70
2018-09-01T09:09:32.540Z,5.20
2018-09-01T09:10:32.575Z,6.30
2018-09-01T09:11:32.657Z,5.70
2018-09-01T09:12:32.656Z,5.90
2018-09-01T09:13:32.697Z,5.80
2018-09-01T09:14:32.728Z,4.70
2018-09-01T09:15:32.763Z,5.40
2018-09-01T09:16:32.798Z,5.20
2018-09-01T09:17:32.843Z,5.30
2018-09-01T09:18:32.891Z,5.00
2018-09-01T09:19:32.919Z,4.90
2018-09-01T09:20:32.952Z,6.40
2018-09-01T09:21:32.992Z,4.00
2018-09-01T09:22:33.030Z,6.50
2018-09-01T09:23:33.069Z,4.40
2018-09-01T09:24:33.107Z,3.30
2018-09-01T09:25:33.149Z,3.50
2018-09-01T09:26:33.184Z,4.30
2018-09-01T09:27:33.228Z,4.80
2018-09-01T09:28:33.258Z,3.10
2018-09-01T09:29:33.299Z,4.70
2018-09-01T09:30:33.334Z,5.30
2018-09-01T09:31:33.373Z,6.10
2018-09-01T09:32:33.411Z,2.40
2018-09-01T09:33:33.446Z,4.30
2018-09-01T09:34:33.531Z,3.30
2018-09-01T09:35:33.528Z,3.80
2018-09-01T09:36:33.570Z,2.80
2018-09-01T09:37:33.602Z,3.10
2018-09-01T09:38:33.645Z,3.90
2018-09-01T09:39:33.681Z,4.20
2018-09-01T09:40:33.723Z,3.20
2018-09-01T09:41:33.774Z,4.10
2018-09-01T09:42:33.815Z,3.20
2018-09-01T09:43:33.840Z,4.20
2018-09-01T09:44:33.870Z,2.80
2018-09-01T09:45:33.915Z,4.20
2018-09-01T09:46:33.949Z,3.80
2018-09-01T09:47:33.988Z,2.40
2018-09-01T09:48:34.021Z,2.60
2018-09-01T09:49:34.073Z,3.00
2018-09-01T09:50:34.107Z,3.40
2018-09-01T09:51:34.145Z,3.90
2018-09-01T09:52:34.186Z,3.30
2018-09-01T09:53:34.222Z,3.20
2018-09-01T09:54:34.265Z,3.00
2018-09-01T09:55:34.296Z,3.00
2018-09-01T09:56:34.335Z,4.10
2018-09-01T09:57:34.383Z,3.40
2018-09-01T09:58:34.415Z,3.30
2018-09-01T09:59:34.456Z,3.80
2018-09-01T10:00:34.498Z,4.10
2018-09-01T10:01:34.534Z,3.40
2018-09-01T10:02:34.577Z,2.90
2018-09-01T10:03:34.615Z,5.10
2018-09-01T10:04:34.649Z,4.30
2018-09-01T10:05:34.773Z,2.40
2018-09-01T10:06:34.722Z,3.20
2018-09-01T10:07:34.767Z,2.90
2018-09-01T10:08:34.800Z,3.90
2018-09-01T10:09:34.856Z,2.60
2018-09-01T10:10:34.889Z,1.90
2018-09-01T10:11:34.925Z,4.10
2018-09-01T10:12:34.966Z,3.30
2018-09-01T10:13:35.005Z,2.70
2018-09-01T10:14:35.043Z,3.20
2018-09-01T10:15:35.084Z,3.60
2018-09-01T10:16:35.122Z,3.80
2018-09-01T10:17:35.164Z,3.80
2018-09-01T10:18:35.227Z,3.70
2018-09-01T10:19:35.240Z,3.40
2018-09-01T10:20:35.344Z,2.70
2018-09-01T10:21:35.321Z,3.10
2018-09-01T10:22:35.352Z,2.40
2018-09-01T10:23:35.401Z,2.60
2018-09-01T10:24:35.438Z,3.50
2018-09-01T10:25:35.476Z,2.70
2018-09-01T10:26:35.514Z,1.60
2018-09-01T10:27:35.556Z,2.60
2018-09-01T10:28:35.591Z,2.20
2018-09-01T10:29:35.636Z,2.40
2018-09-01T10:30:35.683Z,2.10
2018-09-01T10:31:35.715Z,3.20
2018-09-01T10:32:35.750Z,3.80
2018-09-01T10:33:35.789Z,2.80
2018-09-01T10:34:35.831Z,2.40
2018-09-01T10:35:35.876Z,2.10
2018-09-01T10:36:35.904Z,2.10
2018-09-01T10:37:35.961Z,2.40
2018-09-01T10:38:36.032Z,2.40
2018-09-01T10:39:36.028Z,1.90
2018-09-01T10:40:36.065Z,2.80
2018-09-01T10:41:36.110Z,3.30
2018-09-01T10:42:36.142Z,2.90
2018-09-01T10:43:36.196Z,3.00
2018-09-01T10:44:36.228Z,1.70
2018-09-01T10:45:36.268Z,2.10
2018-09-01T10:46:36.371Z,2.50
2018-09-01T10:47:36.343Z,1.80
2018-09-01T10:48:36.376Z,2.60
2018-09-01T10:49:36.430Z,2.00
2018-09-01T10:50:36.474Z,3.10
2018-09-01T10:51:36.507Z,3.10
2018-09-01T10:52:36.569Z,3.10
2018-09-01T10:53:36.587Z,2.70
2018-09-01T10:54:36.631Z,4.30
2018-09-01T10:55:36.668Z,3.00
2018-09-01T10:56:36.706Z,2.60
2018-09-01T10:57:36.745Z,3.90
2018-09-01T10:58:36.786Z,2.20
2018-09-01T10:59:36.982Z,2.30
2018-09-01T11:00:36.868Z,3.20
2018-09-01T11:01:36.903Z,2.50
2018-09-01T11:02:36.949Z,3.60
2018-09-01T11:03:36.988Z,2.30
2018-09-01T11:04:37.024Z,1.70
2018-09-01T11:05:37.092Z,5.80
2018-09-01T11:06:37.103Z,2.90
2018-09-01T11:07:37.141Z,2.60
2018-09-01T11:08:37.183Z,1.90
2018-09-01T11:09:37.218Z,2.50
2018-09-01T11:10:37.260Z,2.80
2018-09-01T11:11:37.298Z,2.30
2018-09-01T11:12:37.337Z,2.20
2018-09-01T11:13:37.379Z,2.60
2018-09-01T11:14:37.420Z,2.30
2018-09-01T11:15:37.452Z,2.00
2018-09-01T11:16:37.486Z,3.00
2018-09-01T11:17:37.558Z,3.00
2018-09-01T11:18:37.573Z,2.90
2018-09-01T11:19:37.617Z,2.70
2018-09-01T11:20:37.678Z,1.80
2018-09-01T11:21:37.687Z,3.00
2018-09-01T11:22:37.728Z,3.10
2018-09-01T11:23:37.772Z,2.10
2018-09-01T11:24:37.802Z,3.10
2018-09-01T11:25:37.850Z,2.00
2018-09-01T11:26:37.888Z,2.00
2018-09-01T11:27:37.978Z,3.40
2018-09-01T11:28:37.969Z,4.10
2018-09-01T11:29:38.001Z,4.10
2018-09-01T11:30:38.038Z,3.50
2018-09-01T11:31:38.077Z,1.90
2018-09-01T11:32:38.135Z,3.40
2018-09-01T11:33:38.171Z,2.30
2018-09-01T11:34:38.229Z,5.30
2018-09-01T11:35:38.233Z,3.10
2018-09-01T11:37:38.321Z,2.60
2018-09-01T11:38:38.358Z,3.10
2018-09-01T11:39:38.394Z,3.60
2018-09-01T11:40:38.435Z,2.80
2018-09-01T11:41:38.474Z,2.60
2018-09-01T11:42:38.627Z,2.70
2018-09-01T11:43:38.551Z,3.50
2018-09-01T11:44:38.590Z,2.80
2018-09-01T11:45:38.628Z,2.20
2018-09-01T11:46:38.673Z,3.20
2018-09-01T11:47:38.709Z,3.50
2018-09-01T11:48:38.762Z,3.00
2018-09-01T11:49:38.813Z,3.00
2018-09-01T11:50:38.833Z,2.60
2018-09-01T11:51:38.888Z,2.70
2018-09-01T11:52:38.920Z,2.90
2018-09-01T11:53:39.042Z,2.50
2018-09-01T11:54:39.003Z,2.90
2018-09-01T11:55:39.039Z,4.40
2018-09-01T11:56:39.074Z,2.60
2018-09-01T11:57:39.106Z,3.70
2018-09-01T11:58:39.195Z,3.70
2018-09-01T11:59:39.198Z,2.60
2018-09-01T12:00:39.235Z,3.70
2018-09-01T12:01:39.280Z,3.40
2018-09-01T12:02:39.322Z,3.10
2018-09-01T12:03:39.397Z,3.50
2018-09-01T12:04:39.392Z,2.80
2018-09-01T12:05:39.447Z,3.60
2018-09-01T12:06:39.475Z,4.00
2018-09-01T12:07:39.516Z,2.90
2018-09-01T12:08:39.561Z,3.30
2018-09-01T12:09:39.616Z,2.00
2018-09-01T12:10:39.637Z,2.70
2018-09-01T12:11:39.686Z,2.60
2018-09-01T12:12:39.722Z,2.70
2018-09-01T12:13:39.761Z,3.00
2018-09-01T12:14:39.805Z,2.60
2018-09-01T12:15:39.865Z,4.00
2018-09-01T12:16:39.890Z,2.50
2018-09-01T12:17:39.932Z,4.00
2018-09-01T12:18:39.967Z,3.00
2018-09-01T12:19:40.006Z,2.20
2018-09-01T12:20:40.047Z,4.80
2018-09-01T12:21:40.085Z,2.40
2018-09-01T12:22:40.126Z,2.50
2018-09-01T12:23:40.171Z,3.00
2018-09-01T12:24:40.209Z,4.20
2018-09-01T12:25:40.250Z,2.70
2018-09-01T12:26:40.286Z,3.10
2018-09-01T12:27:40.327Z,3.60
2018-09-01T12:28:40.369Z,3.00
2018-09-01T12:29:40.427Z,2.80
2018-09-01T12:30:40.451Z,2.60
2018-09-01T12:32:40.535Z,3.40
2018-09-01T12:33:40.567Z,3.00
2018-09-01T12:35:40.647Z,3.20
2018-09-01T12:36:40.685Z,4.20
2018-09-01T12:37:40.723Z,3.00
2018-09-01T12:38:40.772Z,3.30
2018-09-01T12:39:40.803Z,3.80
2018-09-01T12:40:40.846Z,2.90
2018-09-01T12:41:40.884Z,2.90
2018-09-01T12:42:40.923Z,3.40
2018-09-01T12:43:40.959Z,2.90
2018-09-01T12:44:41.000Z,2.50
2018-09-01T12:45:41.048Z,2.40
2018-09-01T12:46:41.070Z,4.10
2018-09-01T12:47:41.116Z,3.10
2018-09-01T12:48:41.157Z,3.30
2018-09-01T12:49:41.192Z,3.00
2018-09-01T12:50:41.237Z,3.90
2018-09-01T12:51:41.270Z,2.90
2018-09-01T12:52:41.305Z,3.60
2018-09-01T12:53:41.346Z,3.10
2018-09-01T12:54:41.381Z,5.60
2018-09-01T12:55:41.423Z,3.20
2018-09-01T12:56:41.462Z,3.50
2018-09-01T12:57:41.498Z,4.60
2018-09-01T12:58:41.536Z,2.50
2018-09-01T12:59:41.571Z,3.20
2018-09-01T13:00:41.684Z,3.30
2018-09-01T13:01:41.648Z,2.30
2018-09-01T13:02:41.680Z,2.70
2018-09-01T13:03:41.719Z,2.90
2018-09-01T13:04:41.758Z,5.60
2018-09-01T13:05:41.796Z,3.50
2018-09-01T13:06:41.831Z,3.60
2018-09-01T13:07:41.872Z,3.70
2018-09-01T13:08:41.907Z,2.50
2018-09-01T13:09:41.946Z,3.20
2018-09-01T13:10:41.989Z,3.20
2018-09-01T13:11:42.019Z,2.40
2018-09-01T13:12:42.057Z,2.90
2018-09-01T13:13:42.093Z,2.90
2018-09-01T13:14:42.132Z,3.30
2018-09-01T13:15:42.167Z,2.50
2018-09-01T13:16:42.207Z,2.80
2018-09-01T13:17:42.247Z,4.10
2018-09-01T13:18:42.281Z,2.70
2018-09-01T13:19:42.358Z,3.10
2018-09-01T13:20:42.361Z,2.80
2018-09-01T13:21:42.396Z,3.30
2018-09-01T13:22:42.428Z,3.60